Eastville, Pennsylvania
Current Conditions -  °F | °C
As of 1:54 PM on Monday 20 Oct 2014 (Local Time) from KIPT Reporting Station
Broken Clouds Broken Clouds  
Wind Chill: 56°   Ceiling: 12000
Heat Index: 56°   Visibility: 10mi
Dew Point: 38°   Wind: 6mph
Humidity: 51%   Direction: 100°E
Pressure: 29.95"   Gusts: NA
Location:  41.029°N, 77.3175°W
Report Text: KIPT 201754Z 10005KT 10SM BKN120 13/03 A2995 RMK AO2 SLP143 T01330033 10133 20022 58028
Loading
Personal Weather Stations






























Interactive Weather Map
Tropical Storm Tracking
New forecast layout! Learn more

10-Day Weather Forecast

Advertisements
Track Severe Weather on mobile